Time;durP1;ratioP1;P1;durP2;ratioP2;P2;SDS_P1;SDS_P2;PMS_P1;PMS_P2;Temp;Humidity;BMP_temperature;BMP_pressure;BME280_temperature;BME280_humidity;BME280_pressure;Samples;Min_cycle;Max_cycle;Signal;HPM_P1;HPM_P2
2021/01/07 00:00:22;;;;;;;16.27;10.98;;;;;;;5.75;89.85;94850.13;5083238;28;20307;-70
2021/01/07 00:02:49;;;;;;;17.95;10.25;;;;;;;5.58;90.00;94838.59;5085313;27;20056;-70
2021/01/07 00:05:16;;;;;;;19.48;10.73;;;;;;;5.53;90.58;94857.31;5080710;28;20048;-70
2021/01/07 00:07:42;;;;;;;18.92;11.38;;;;;;;5.54;90.59;94848.53;5083777;27;20559;-71
2021/01/07 00:10:09;;;;;;;18.25;12.07;;;;;;;5.60;90.68;94864.25;5086169;28;20124;-71
2021/01/07 00:12:36;;;;;;;15.98;10.25;;;;;;;5.59;90.90;94850.53;5084614;28;20044;-71
2021/01/07 00:15:03;;;;;;;16.90;10.60;;;;;;;5.60;90.53;94835.81;5082591;28;20028;-72
2021/01/07 00:17:30;;;;;;;20.27;11.68;;;;;;;5.53;90.60;94839.22;5084528;27;20658;-69
2021/01/07 00:19:56;;;;;;;18.45;11.50;;;;;;;5.38;91.09;94817.94;5085607;28;20122;-71
2021/01/07 00:22:23;;;;;;;23.50;10.45;;;;;;;5.57;90.82;94846.59;5085485;28;20036;-71
2021/01/07 00:24:49;;;;;;;18.30;10.93;;;;;;;5.57;90.77;94841.41;5085972;28;20036;-70
2021/01/07 00:27:15;;;;;;;19.27;11.52;;;;;;;5.54;90.81;94848.53;5085064;28;20062;-70
2021/01/07 00:29:41;;;;;;;20.02;10.60;;;;;;;5.49;90.95;94830.28;5084957;27;20076;-70
2021/01/07 00:32:08;;;;;;;17.83;11.88;;;;;;;5.63;90.66;94843.19;5085634;28;20154;-71
2021/01/07 00:34:34;;;;;;;16.45;10.77;;;;;;;5.64;90.71;94837.03;5083335;27;20052;-71
2021/01/07 00:37:01;;;;;;;19.00;11.35;;;;;;;5.67;90.80;94831.44;5084387;28;20044;-70
2021/01/07 00:39:27;;;;;;;17.38;11.18;;;;;;;5.60;90.51;94841.00;5084933;27;20048;-71
2021/01/07 00:41:58;;;;;;;20.95;12.02;;;;;;;5.63;90.44;94835.44;5084054;28;20036;-71
2021/01/07 00:44:26;;;;;;;20.75;11.10;;;;;;;5.73;90.19;94846.19;5083378;28;20127;-72
2021/01/07 00:46:53;;;;;;;20.02;11.30;;;;;;;5.70;90.26;94831.06;5084587;28;21850;-70
2021/01/07 00:49:20;;;;;;;19.20;11.90;;;;;;;5.65;90.69;94838.63;5081851;28;20044;-70
2021/01/07 00:51:47;;;;;;;21.10;11.25;;;;;;;5.70;90.59;94846.56;5084139;28;20044;-70
2021/01/07 00:54:14;;;;;;;22.30;11.38;;;;;;;5.72;90.29;94827.28;5084082;28;20105;-71
2021/01/07 00:56:41;;;;;;;23.40;12.23;;;;;;;5.76;89.96;94843.16;5082835;28;20048;-70
2021/01/07 00:59:14;;;;;;;18.25;11.65;;;;;;;5.78;89.62;94832.63;5082769;28;20048;-71
2021/01/07 01:01:45;;;;;;;19.30;12.13;;;;;;;5.71;89.50;94837.84;5083189;28;20111;-70
2021/01/07 01:04:13;;;;;;;18.55;12.07;;;;;;;5.69;89.93;94822.53;5081045;27;20052;-70
2021/01/07 01:06:39;;;;;;;23.23;11.18;;;;;;;5.89;89.12;94825.09;5085312;28;20087;-70
2021/01/07 01:09:06;;;;;;;17.58;10.77;;;;;;;5.77;89.88;94800.84;5084188;27;20051;-70
2021/01/07 01:11:46;;;;;;;18.35;11.63;;;;;;;5.74;89.34;94832.25;5084268;28;20040;-70
2021/01/07 01:14:19;;;;;;;16.58;10.73;;;;;;;5.80;89.22;94813.38;5085023;27;20048;-70
2021/01/07 01:16:47;;;;;;;18.25;11.35;;;;;;;5.71;89.48;94802.44;5084387;28;20059;-70
2021/01/07 01:19:15;;;;;;;19.40;11.30;;;;;;;5.65;89.29;94810.97;5083886;28;20131;-70
2021/01/07 01:21:42;;;;;;;16.95;10.32;;;;;;;5.57;89.47;94790.53;5084729;28;20032;-71
2021/01/07 01:24:10;;;;;;;19.38;10.65;;;;;;;5.63;90.12;94799.25;5085538;28;20536;-71
2021/01/07 01:26:36;;;;;;;26.95;10.88;;;;;;;5.55;90.90;94798.47;5082891;28;20068;-71
2021/01/07 01:29:03;;;;;;;18.60;10.98;;;;;;;5.42;91.25;94777.81;5085301;28;20450;-71
2021/01/07 01:31:29;;;;;;;19.38;12.27;;;;;;;5.46;91.58;94779.00;5085042;28;20040;-70
2021/01/07 01:33:56;;;;;;;16.23;10.55;;;;;;;5.35;91.56;94767.50;5084989;28;20059;-71
2021/01/07 01:36:24;;;;;;;23.48;11.68;;;;;;;5.39;92.05;94767.88;5084472;28;20558;-72
2021/01/07 01:38:51;;;;;;;17.73;11.43;;;;;;;5.38;91.87;94776.63;5085426;27;20127;-71
2021/01/07 01:41:17;;;;;;;19.52;11.80;;;;;;;5.38;92.10;94763.69;5084651;28;20761;-71
2021/01/07 01:43:44;;;;;;;22.80;13.00;;;;;;;5.37;92.53;94769.88;5084754;28;20060;-71
2021/01/07 01:46:10;;;;;;;18.25;12.25;;;;;;;5.46;91.80;94778.22;5083942;28;20547;-71
2021/01/07 01:48:36;;;;;;;19.25;12.35;;;;;;;5.47;91.88;94772.84;5082946;27;20075;-71
2021/01/07 01:51:03;;;;;;;20.92;12.20;;;;;;;5.44;91.36;94773.25;5085508;28;20115;-71
2021/01/07 01:53:31;;;;;;;20.65;12.77;;;;;;;5.51;91.95;94773.22;5086517;28;20044;-71
2021/01/07 01:55:59;;;;;;;19.60;11.70;;;;;;;5.45;91.97;94755.97;5088376;28;20039;-71
2021/01/07 01:58:26;;;;;;;18.70;10.25;;;;;;;5.44;92.07;94764.69;5087015;28;20586;-71
2021/01/07 02:00:53;;;;;;;16.15;10.73;;;;;;;5.43;91.78;94763.91;5084552;28;20541;-72
2021/01/07 02:03:19;;;;;;;15.18;9.95;;;;;;;5.50;91.77;94749.19;5085155;27;20040;-71
2021/01/07 02:05:46;;;;;;;16.98;9.77;;;;;;;5.52;91.31;94754.16;5083127;28;20039;-72
2021/01/07 02:08:14;;;;;;;17.17;10.68;;;;;;;5.61;90.15;94754.75;5086998;28;20047;-72
2021/01/07 02:10:41;;;;;;;28.50;14.13;;;;;;;5.78;89.96;94740.41;5087406;28;20498;-72
2021/01/07 02:13:08;;;;;;;15.88;8.77;;;;;;;5.83;89.95;94722.47;5087084;28;20115;-72
2021/01/07 02:15:41;;;;;;;19.42;7.63;;;;;;;5.91;89.50;94731.81;5083326;28;20483;-72
2021/01/07 02:18:09;;;;;;;9.90;6.45;;;;;;;5.97;88.42;94750.91;5085738;28;20162;-71
2021/01/07 02:20:38;;;;;;;13.55;8.05;;;;;;;6.04;88.16;94733.59;5087074;27;20059;-71
2021/01/07 02:23:05;;;;;;;18.92;10.32;;;;;;;5.96;89.40;94706.19;5087003;28;20101;-71
2021/01/07 02:25:32;;;;;;;13.57;8.50;;;;;;;5.77;89.70;94702.63;5087133;28;20044;-72
2021/01/07 02:27:59;;;;;;;13.85;7.60;;;;;;;5.69;90.34;94700.25;5087856;28;20493;-71
2021/01/07 02:30:25;;;;;;;9.85;7.25;;;;;;;5.71;90.07;94690.53;5085933;28;20585;-72
2021/01/07 02:32:51;;;;;;;11.43;7.35;;;;;;;5.89;89.56;94701.00;5088050;28;20050;-72
2021/01/07 02:35:18;;;;;;;11.18;6.53;;;;;;;5.97;88.38;94694.03;5087045;27;20051;-72
2021/01/07 02:37:46;;;;;;;10.20;5.90;;;;;;;6.15;87.10;94688.97;5087760;28;20136;-72
2021/01/07 02:40:14;;;;;;;6.03;3.67;;;;;;;6.35;85.25;94690.69;5085553;28;20044;-72
2021/01/07 02:42:40;;;;;;;7.95;6.15;;;;;;;6.55;84.54;94699.09;5086268;28;20031;-72
2021/01/07 02:45:08;;;;;;;8.82;5.55;;;;;;;6.45;84.89;94688.44;5087399;28;20066;-72
2021/01/07 02:47:36;;;;;;;6.65;4.03;;;;;;;6.45;84.61;94678.09;5086228;28;20040;-71
2021/01/07 02:50:07;;;;;;;6.82;4.10;;;;;;;6.62;84.92;94693.91;5087620;27;20056;-71
2021/01/07 02:52:34;;;;;;;5.97;3.80;;;;;;;6.76;83.94;94695.41;5086024;28;20044;-70
2021/01/07 02:55:01;;;;;;;7.13;4.00;;;;;;;6.89;82.42;94704.88;5086844;28;20141;-71
2021/01/07 02:57:27;;;;;;;9.15;4.63;;;;;;;6.99;82.20;94679.31;5087008;28;20108;-70
2021/01/07 02:59:55;;;;;;;9.85;5.07;;;;;;;6.89;82.49;94705.66;5087328;27;20434;-70
2021/01/07 03:02:21;;;;;;;6.80;4.25;;;;;;;6.74;83.60;94697.41;5084334;28;20050;-71
2021/01/07 03:04:48;;;;;;;6.28;4.30;;;;;;;6.82;83.07;94698.94;5082504;27;20048;-70
2021/01/07 03:07:15;;;;;;;14.05;5.10;;;;;;;6.56;83.63;94685.19;5087061;28;20467;-70
2021/01/07 03:09:45;;;;;;;12.23;6.03;;;;;;;6.75;83.54;94705.97;5085892;28;20406;-71
2021/01/07 03:12:15;;;;;;;7.20;4.82;;;;;;;6.73;83.51;94718.31;5086089;28;20520;-70
2021/01/07 03:14:42;;;;;;;5.30;4.22;;;;;;;6.59;83.77;94715.81;5085254;28;20047;-70
2021/01/07 03:17:09;;;;;;;6.15;4.55;;;;;;;6.77;83.33;94732.41;5086889;28;20111;-70
2021/01/07 03:19:35;;;;;;;10.00;6.38;;;;;;;6.82;83.10;94725.63;5084203;27;20486;-71
2021/01/07 03:22:02;;;;;;;10.48;5.72;;;;;;;6.90;82.62;94732.34;5087150;28;20055;-71
2021/01/07 03:24:32;;;;;;;14.82;7.43;;;;;;;7.07;81.64;94733.41;5084747;28;20059;-70
2021/01/07 03:27:00;;;;;;;10.18;5.70;;;;;;;6.82;82.46;94719.66;5087060;28;20434;-70
2021/01/07 03:29:26;;;;;;;8.70;5.60;;;;;;;6.71;82.75;94723.69;5086154;28;20052;-71
2021/01/07 03:31:54;;;;;;;10.73;5.55;;;;;;;6.60;83.32;94712.22;5087000;28;20040;-71
2021/01/07 03:34:20;;;;;;;8.52;4.95;;;;;;;6.65;83.38;94709.81;5085789;28;20090;-70
2021/01/07 03:36:48;;;;;;;6.10;4.70;;;;;;;6.55;83.58;94714.63;5086885;28;20064;-71
2021/01/07 03:39:14;;;;;;;7.20;4.75;;;;;;;6.57;82.49;94709.25;5085854;27;20060;-70
2021/01/07 03:41:42;;;;;;;7.93;4.10;;;;;;;6.62;82.61;94724.97;5085856;28;20036;-70
2021/01/07 03:44:09;;;;;;;6.82;3.70;;;;;;;6.59;82.89;94715.00;5085126;28;20047;-70
2021/01/07 03:46:37;;;;;;;6.32;3.88;;;;;;;6.62;83.03;94705.03;5086209;28;20036;-71
2021/01/07 03:49:04;;;;;;;5.47;3.83;;;;;;;6.65;83.02;94699.44;5084360;28;20055;-70
2021/01/07 03:51:31;;;;;;;7.32;3.50;;;;;;;6.64;83.09;94677.16;5085924;28;20489;-70
2021/01/07 03:53:57;;;;;;;8.43;4.75;;;;;;;6.67;82.41;94692.28;5084544;28;20048;-70
2021/01/07 03:56:24;;;;;;;5.72;3.42;;;;;;;6.73;82.41;94697.63;5085448;28;20032;-72
2021/01/07 03:58:50;;;;;;;5.80;3.72;;;;;;;6.79;81.82;94678.66;5086313;28;20062;-70
2021/01/07 04:01:17;;;;;;;5.38;2.97;;;;;;;6.85;81.65;94672.63;5084337;28;20060;-71
2021/01/07 04:03:44;;;;;;;5.32;3.70;;;;;;;7.03;81.21;94685.63;5085625;28;20036;-70
2021/01/07 04:06:10;;;;;;;9.27;4.97;;;;;;;7.16;80.44;94682.13;5082235;27;20040;-70
2021/01/07 04:08:37;;;;;;;7.97;4.82;;;;;;;7.21;80.26;94684.09;5084742;28;20048;-70
2021/01/07 04:11:03;;;;;;;13.55;6.93;;;;;;;7.28;79.55;94687.41;5086381;28;20048;-70
2021/01/07 04:13:30;;;;;;;4.72;2.70;;;;;;;7.47;77.61;94686.44;5085265;28;20044;-70
2021/01/07 04:15:57;;;;;;;9.55;6.00;;;;;;;7.68;76.86;94692.22;5082757;27;20467;-70
2021/01/07 04:18:24;;;;;;;10.15;5.72;;;;;;;7.73;76.74;94682.00;5083963;28;20118;-70
2021/01/07 04:20:50;;;;;;;7.47;4.57;;;;;;;7.74;77.25;94686.19;5085733;27;20044;-70
2021/01/07 04:23:16;;;;;;;11.68;6.75;;;;;;;7.69;76.96;94687.81;5085106;28;20059;-71
2021/01/07 04:25:43;;;;;;;18.30;11.40;;;;;;;7.47;78.62;94696.81;5085597;28;20048;-70
2021/01/07 04:28:09;;;;;;;18.58;9.27;;;;;;;7.51;77.29;94696.38;5084960;28;20044;-70
2021/01/07 04:30:35;;;;;;;46.05;26.40;;;;;;;7.58;77.94;94691.91;5083517;28;20059;-70
2021/01/07 04:33:02;;;;;;;11.45;7.93;;;;;;;7.57;77.09;94700.72;5086068;28;20043;-70
2021/01/07 04:35:29;;;;;;;8.95;5.90;;;;;;;7.71;76.33;94712.53;5083627;28;20043;-71
2021/01/07 04:37:56;;;;;;;6.65;4.32;;;;;;;7.75;76.38;94713.66;5085189;28;20497;-70
2021/01/07 04:40:22;;;;;;;4.82;3.10;;;;;;;7.75;76.13;94708.47;5084950;27;20048;-71
2021/01/07 04:42:48;;;;;;;16.40;8.93;;;;;;;7.76;74.10;94710.09;5085837;28;20044;-71
2021/01/07 04:45:15;;;;;;;2.28;1.30;;;;;;;8.15;71.54;94692.47;5085168;28;20074;-71
2021/01/07 04:47:48;;;;;;;5.15;3.35;;;;;;;8.26;72.30;94692.75;5083901;28;20054;-70
2021/01/07 04:50:16;;;;;;;2.72;2.25;;;;;;;8.38;72.49;94714.34;5085237;27;20106;-70
2021/01/07 04:52:42;;;;;;;5.63;2.70;;;;;;;8.32;73.27;94704.81;5084403;28;20040;-70
2021/01/07 04:55:10;;;;;;;5.25;2.50;;;;;;;8.17;73.62;94695.63;5084104;28;20151;-70
2021/01/07 04:57:37;;;;;;;3.90;2.03;;;;;;;8.34;73.37;94695.03;5083408;28;20040;-71
2021/01/07 05:00:05;;;;;;;10.27;5.30;;;;;;;8.39;72.84;94697.75;5085668;28;20055;-71
2021/01/07 05:02:32;;;;;;;3.15;1.70;;;;;;;8.35;73.22;94696.59;5082801;28;20044;-70
2021/01/07 05:05:00;;;;;;;5.55;3.33;;;;;;;8.44;72.46;94708.28;5081217;27;20047;-70
2021/01/07 05:07:26;;;;;;;3.72;2.50;;;;;;;8.57;72.00;94705.53;5084354;28;20444;-70
2021/01/07 05:10:00;;;;;;;12.18;6.43;;;;;;;8.52;71.68;94697.63;5085655;27;20141;-71
2021/01/07 05:12:26;;;;;;;7.18;4.00;;;;;;;8.54;71.29;94711.16;5084421;28;20418;-71
2021/01/07 05:14:52;;;;;;;5.32;3.25;;;;;;;8.58;71.39;94712.28;5085576;28;20052;-70
2021/01/07 05:17:19;;;;;;;8.93;5.70;;;;;;;8.47;72.46;94710.47;5084339;28;20050;-70
2021/01/07 05:19:45;;;;;;;4.18;2.83;;;;;;;8.56;71.03;94710.94;5084424;28;20050;-70
2021/01/07 05:22:12;;;;;;;17.85;10.00;;;;;;;8.65;70.79;94716.63;5083881;28;20063;-70
2021/01/07 05:24:39;;;;;;;13.95;7.28;;;;;;;8.72;71.26;94712.13;5083134;28;20035;-70
2021/01/07 05:27:16;;;;;;;8.73;6.07;;;;;;;8.79;70.28;94715.41;5086550;28;20482;-70
2021/01/07 05:29:44;;;;;;;6.78;3.33;;;;;;;8.79;70.10;94723.22;5087004;28;20051;-71
2021/01/07 05:32:11;;;;;;;6.00;3.50;;;;;;;8.43;72.00;94719.69;5088930;28;20465;-71
2021/01/07 05:34:50;;;;;;;4.07;3.05;;;;;;;8.22;73.63;94720.94;5086786;28;20119;-71
2021/01/07 05:37:18;;;;;;;10.73;6.13;;;;;;;8.13;74.46;94709.28;5088912;28;20058;-71
2021/01/07 05:39:49;;;;;;;5.53;3.83;;;;;;;8.21;74.29;94730.53;5087011;28;20051;-71
2021/01/07 05:42:17;;;;;;;8.25;5.15;;;;;;;8.11;74.71;94722.44;5088574;28;20047;-70
2021/01/07 05:44:47;;;;;;;12.82;6.70;;;;;;;8.23;74.64;94731.09;5088326;28;21325;-70
2021/01/07 05:47:28;;;;;;;9.38;5.38;;;;;;;8.19;74.86;94729.94;5089023;28;20502;-71
2021/01/07 05:49:58;;;;;;;183.40;62.28;;;;;;;8.08;75.31;94732.47;5088757;28;20068;-71
2021/01/07 05:52:31;;;;;;;218.02;71.18;;;;;;;8.00;75.64;94736.16;5087394;28;20050;-71
2021/01/07 05:55:01;;;;;;;77.00;31.88;;;;;;;7.88;75.67;94714.53;5087563;28;20040;-71
2021/01/07 05:57:36;;;;;;;18.63;9.77;;;;;;;7.98;75.22;94722.63;5087947;28;20044;-71
2021/01/07 06:00:07;;;;;;;11.10;6.05;;;;;;;7.91;75.12;94724.50;5086919;27;20050;-71
2021/01/07 06:02:39;;;;;;;15.77;8.38;;;;;;;7.94;74.50;94731.81;5084905;28;20130;-71
2021/01/07 06:05:10;;;;;;;4.97;3.33;;;;;;;7.99;74.93;94724.97;5083731;27;20032;-71
2021/01/07 06:07:38;;;;;;;12.70;8.98;;;;;;;8.09;74.54;94744.44;5085847;28;20063;-71
2021/01/07 06:10:06;;;;;;;12.48;8.15;;;;;;;7.98;75.71;94733.00;5070229;28;20131;-71
2021/01/07 06:12:33;;;;;;;22.80;10.30;;;;;;;7.94;75.37;94748.19;5086267;28;20098;-70
2021/01/07 06:15:07;;;;;;;19.30;11.73;;;;;;;7.97;75.38;94741.75;5088471;28;20028;-71
2021/01/07 06:17:36;;;;;;;10.27;6.15;;;;;;;7.98;75.36;94748.56;5086748;28;20051;-71
2021/01/07 06:20:14;;;;;;;14.35;7.53;;;;;;;8.07;75.03;94754.22;5088569;28;20036;-71
2021/01/07 06:22:49;;;;;;;13.60;7.85;;;;;;;8.09;75.30;94750.41;5068243;28;20059;-71
2021/01/07 06:25:17;;;;;;;15.07;9.40;;;;;;;8.02;76.14;94760.06;5088455;28;20040;-71
2021/01/07 06:27:45;;;;;;;324.52;162.30;;;;;;;7.94;76.02;94748.19;5087734;28;20371;-71
2021/01/07 06:30:11;;;;;;;247.20;130.23;;;;;;;8.04;76.09;94760.63;5087575;28;20036;-71
2021/01/07 06:32:38;;;;;;;120.55;59.38;;;;;;;8.09;76.02;94750.41;5087353;28;20060;-71
2021/01/07 06:35:13;;;;;;;57.63;32.78;;;;;;;8.10;76.92;94756.38;5088003;28;20039;-71
2021/01/07 06:37:47;;;;;;;30.10;19.83;;;;;;;8.15;77.31;94753.94;5086185;28;20032;-71
2021/01/07 06:40:15;;;;;;;14.15;8.60;;;;;;;8.11;77.51;94753.59;5086480;28;20066;-72
2021/01/07 06:42:49;;;;;;;18.52;10.25;;;;;;;8.08;77.37;94759.19;5085532;28;20051;-72
2021/01/07 06:45:18;;;;;;;;;;;;;;;8.10;76.97;94751.97;5085966;28;20036;-72
2021/01/07 06:47:46;;;;;;;8.55;4.18;;;;;;;7.96;77.06;94745.34;5083951;28;20453;-71
2021/01/07 06:50:13;;;;;;;6.47;3.80;;;;;;;8.06;76.93;94752.66;5085073;28;20036;-71
2021/01/07 06:52:41;;;;;;;28.02;9.90;;;;;;;8.07;77.04;94755.03;5083682;28;20058;-72
2021/01/07 06:55:12;;;;;;;15.95;8.55;;;;;;;8.05;76.95;94754.47;5086466;28;20513;-72
2021/01/07 06:57:45;;;;;;;15.55;6.63;;;;;;;7.99;76.64;94765.69;5085053;28;20131;-72
2021/01/07 07:00:17;;;;;;;24.38;13.77;;;;;;;7.93;77.06;94761.38;5086203;28;20509;-72
2021/01/07 07:03:03;;;;;;;39.40;21.80;;;;;;;8.09;77.20;94776.34;5083027;28;20527;-71
2021/01/07 07:05:34;;;;;;;26.90;17.33;;;;;;;8.06;77.76;94766.41;5081369;28;20036;-71
2021/01/07 07:08:07;;;;;;;27.55;17.98;;;;;;;8.00;78.12;94762.88;5085538;28;20134;-72
2021/01/07 07:10:34;;;;;;;34.43;20.63;;;;;;;8.00;78.36;94762.09;5083391;27;20054;-72
2021/01/07 07:13:14;;;;;;;37.80;19.25;;;;;;;8.08;78.39;94761.78;5086126;28;20860;-72
2021/01/07 07:15:41;;;;;;;16.50;8.85;;;;;;;8.03;78.06;94761.63;5084940;28;20028;-71
2021/01/07 07:18:07;;;;;;;14.80;7.00;;;;;;;8.12;78.31;94768.16;5083848;28;20040;-72
2021/01/07 07:20:45;;;;;;;12.90;6.25;;;;;;;8.12;78.39;94781.13;5085035;28;20486;-71
2021/01/07 07:23:24;;;;;;;17.52;9.57;;;;;;;8.25;76.94;94785.38;5085340;28;20054;-72
2021/01/07 07:25:53;;;;;;;21.73;10.48;;;;;;;8.29;77.33;94801.28;5086350;27;20056;-72
2021/01/07 07:28:25;;;;;;;17.70;9.88;;;;;;;8.26;77.07;94786.16;5085436;28;20205;-72
2021/01/07 07:30:52;;;;;;;16.75;9.65;;;;;;;8.47;76.15;94798.72;5085930;27;20154;-72
2021/01/07 07:33:36;;;;;;;18.05;7.18;;;;;;;8.54;75.70;94798.63;5086654;28;20062;-72
2021/01/07 07:36:09;;;;;;;19.15;10.88;;;;;;;8.60;76.07;94808.91;5083029;28;20118;-72
2021/01/07 07:38:37;;;;;;;16.50;8.70;;;;;;;8.65;75.81;94808.28;5084716;28;20052;-72
2021/01/07 07:41:08;;;;;;;59.08;24.90;;;;;;;8.78;75.99;94807.31;5085975;27;20056;-72
2021/01/07 07:43:37;;;;;;;24.20;11.93;;;;;;;8.87;75.88;94813.78;5083666;28;20040;-72
2021/01/07 07:46:05;;;;;;;22.05;13.43;;;;;;;8.89;76.25;94809.16;5086537;27;20056;-71
2021/01/07 07:48:37;;;;;;;26.43;13.10;;;;;;;8.87;76.39;94803.38;5084284;28;22115;-72
2021/01/07 07:51:07;;;;;;;9.38;4.82;;;;;;;9.01;75.93;94821.41;5084420;27;20054;-72
2021/01/07 07:53:34;;;;;;;29.33;14.38;;;;;;;9.08;76.64;94820.31;5085828;28;20044;-71
2021/01/07 07:56:01;;;;;;;20.20;8.20;;;;;;;9.17;76.25;94833.78;5086588;28;20036;-71
2021/01/07 07:58:28;;;;;;;11.40;4.30;;;;;;;9.16;76.38;94837.38;5085323;28;20063;-72
2021/01/07 08:00:57;;;;;;;7.55;5.57;;;;;;;9.08;77.12;94840.31;5086350;28;20123;-72
2021/01/07 08:03:32;;;;;;;8.45;4.25;;;;;;;8.99;77.11;94839.81;5084007;28;20040;-72
2021/01/07 08:06:00;;;;;;;12.98;6.65;;;;;;;8.82;78.11;94841.44;5062925;28;20044;-70
2021/01/07 08:08:30;;;;;;;9.88;4.90;;;;;;;8.57;79.10;94840.53;5084435;28;20433;-73
2021/01/07 08:10:59;;;;;;;11.65;4.00;;;;;;;8.20;80.53;94866.44;5086270;27;20510;-72
2021/01/07 08:13:27;;;;;;;6.40;3.28;;;;;;;7.80;81.46;94866.00;5085611;28;20044;-72
2021/01/07 08:16:01;;;;;;;8.27;2.72;;;;;;;7.32;82.77;94862.16;5086109;28;20040;-73
2021/01/07 08:18:29;;;;;;;4.15;2.53;;;;;;;7.05;84.13;94864.13;5084523;28;20055;-73
2021/01/07 08:21:09;;;;;;;6.25;3.30;;;;;;;6.79;85.47;94854.66;5085516;27;20036;-73
2021/01/07 08:23:36;;;;;;;5.07;3.03;;;;;;;6.90;85.44;94898.06;5084105;28;20126;-73
2021/01/07 08:26:05;;;;;;;4.38;1.75;;;;;;;6.80;85.03;94897.69;5085954;28;20077;-71
2021/01/07 08:28:34;;;;;;;3.47;1.92;;;;;;;6.65;85.21;94911.69;5085428;28;20075;-72
2021/01/07 08:31:11;;;;;;;6.38;2.47;;;;;;;6.48;85.71;94906.16;5083604;28;20382;-72
2021/01/07 08:33:38;;;;;;;5.32;2.70;;;;;;;6.44;85.85;94924.88;5084052;28;20044;-73
2021/01/07 08:36:08;;;;;;;8.55;4.43;;;;;;;6.29;86.22;94923.31;5085296;28;20143;-71
2021/01/07 08:38:37;;;;;;;7.88;3.17;;;;;;;6.24;86.12;94936.03;5067373;28;20112;-70
2021/01/07 08:41:13;;;;;;;5.03;2.97;;;;;;;6.23;86.45;94931.88;5084854;28;20036;-71
2021/01/07 08:43:41;;;;;;;6.10;2.60;;;;;;;6.09;86.91;94945.81;5085503;28;20048;-71
2021/01/07 08:46:14;;;;;;;6.93;1.88;;;;;;;5.93;86.40;94934.03;5085615;28;20032;-71
2021/01/07 08:48:42;;;;;;;2.72;1.48;;;;;;;5.93;86.85;94939.22;5083936;28;20060;-71
2021/01/07 08:51:18;;;;;;;4.82;1.50;;;;;;;5.86;86.19;94948.75;5085126;28;20040;-71
2021/01/07 08:53:47;;;;;;;3.33;1.58;;;;;;;5.75;85.72;94957.91;5085477;28;20039;-72
2021/01/07 08:56:34;;;;;;;3.03;1.20;;;;;;;5.65;86.17;94967.81;5084111;28;20067;-72
2021/01/07 08:59:22;;;;;;;4.03;2.08;;;;;;;5.52;86.10;94979.72;5085710;28;20044;-72
2021/01/07 09:01:51;;;;;;;4.38;2.05;;;;;;;5.39;86.13;94953.84;5088914;28;20076;-72
2021/01/07 09:04:28;;;;;;;12.70;3.92;;;;;;;5.43;86.47;94986.03;5087903;28;20044;-71
2021/01/07 09:07:00;;;;;;;4.90;2.03;;;;;;;5.18;87.09;94978.03;5084747;27;20125;-71
2021/01/07 09:09:36;;;;;;;5.88;2.50;;;;;;;5.20;87.90;94990.75;5088316;28;20044;-70
2021/01/07 09:12:12;;;;;;;27.02;7.78;;;;;;;5.07;89.62;95002.59;5088587;28;20071;-72
2021/01/07 09:15:05;;;;;;;4.03;1.70;;;;;;;4.88;89.92;95003.31;5088549;28;20040;-72
2021/01/07 09:17:43;;;;;;;5.95;2.08;;;;;;;4.65;90.69;95009.53;5087770;28;20063;-72
2021/01/07 09:20:12;;;;;;;5.63;2.25;;;;;;;4.63;90.80;95008.94;5088159;28;20051;-72
2021/01/07 09:22:40;;;;;;;6.05;3.13;;;;;;;4.46;91.82;95011.00;5089910;28;22078;-72
2021/01/07 09:25:09;;;;;;;33.92;10.10;;;;;;;4.48;92.27;94997.91;5088218;28;20039;-72
2021/01/07 09:27:36;;;;;;;6.88;2.80;;;;;;;4.44;92.68;94988.97;5089365;28;20153;-73
2021/01/07 09:30:04;;;;;;;11.73;4.15;;;;;;;4.54;91.36;94997.97;5089788;28;20040;-72
2021/01/07 09:32:30;;;;;;;57.03;14.25;;;;;;;4.50;91.57;94998.50;5089347;28;20447;-72
2021/01/07 09:34:56;;;;;;;59.33;18.23;;;;;;;4.53;91.58;94998.94;5089561;28;20611;-72
2021/01/07 09:37:23;;;;;;;80.45;22.42;;;;;;;4.57;91.42;95002.75;5089709;28;20032;-71
2021/01/07 09:39:51;;;;;;;54.20;14.55;;;;;;;4.43;91.62;94992.53;5090201;28;20063;-74
2021/01/07 09:42:20;;;;;;;83.47;21.83;;;;;;;4.39;91.10;94990.34;5090805;28;20119;-72
2021/01/07 09:44:48;;;;;;;58.47;18.77;;;;;;;4.54;92.07;94999.75;5089330;28;20047;-72
2021/01/07 09:47:15;;;;;;;33.67;11.35;;;;;;;4.55;91.79;94993.59;5089420;28;20498;-72
2021/01/07 09:49:42;;;;;;;58.67;18.30;;;;;;;4.52;90.55;94996.53;5090867;28;20391;-72
2021/01/07 09:52:09;;;;;;;73.63;20.40;;;;;;;4.49;90.85;94979.69;5090495;28;20456;-72
2021/01/07 09:54:38;;;;;;;11.98;4.93;;;;;;;4.53;90.32;94965.41;5090664;28;20046;-72
2021/01/07 09:57:05;;;;;;;41.80;13.13;;;;;;;4.60;90.95;94975.78;5089749;28;20393;-73
2021/01/07 09:59:31;;;;;;;57.97;17.08;;;;;;;4.71;90.10;94977.03;5090491;28;20079;-72
2021/01/07 10:02:00;;;;;;;29.77;11.20;;;;;;;4.81;89.96;94981.81;5090205;28;20039;-73
2021/01/07 10:04:26;;;;;;;66.13;24.02;;;;;;;4.93;89.49;94969.97;5089078;28;20059;-73
2021/01/07 10:06:53;;;;;;;40.53;19.48;;;;;;;5.04;89.98;94972.03;5090014;28;20047;-72
2021/01/07 10:09:20;;;;;;;24.13;11.13;;;;;;;5.04;88.16;94966.88;5090315;28;20039;-72
2021/01/07 10:11:51;;;;;;;11.70;6.28;;;;;;;4.88;88.67;94956.84;5089674;28;20036;-72
2021/01/07 10:14:18;;;;;;;26.55;10.45;;;;;;;4.94;89.35;94961.25;5088838;28;20481;-73
2021/01/07 10:16:54;;;;;;;42.30;14.32;;;;;;;4.78;88.33;94942.50;5090188;28;20047;-72
2021/01/07 10:19:23;;;;;;;11.90;4.65;;;;;;;4.94;88.34;94961.25;5090117;28;20040;-73
2021/01/07 10:21:59;;;;;;;105.40;33.00;;;;;;;5.01;88.38;94977.56;5090071;28;20040;-72
2021/01/07 10:24:28;;;;;;;4.43;3.00;;;;;;;4.97;87.35;94986.69;5090060;28;20504;-72
2021/01/07 10:27:02;;;;;;;45.08;13.77;;;;;;;4.84;87.05;94965.97;5088657;28;20059;-72
2021/01/07 10:29:33;;;;;;;36.67;12.45;;;;;;;4.90;87.10;94980.69;5089658;28;20101;-72
2021/01/07 10:32:04;;;;;;;63.90;18.80;;;;;;;4.84;86.64;94976.28;5089756;28;20047;-72
2021/01/07 10:34:37;;;;;;;5.00;2.45;;;;;;;4.72;86.96;94988.94;5089214;28;20110;-72
2021/01/07 10:37:05;;;;;;;21.75;7.30;;;;;;;4.74;86.67;94977.44;5089061;28;20124;-72
2021/01/07 10:39:33;;;;;;;8.20;4.43;;;;;;;4.68;86.27;94978.22;5089851;28;20036;-73
2021/01/07 10:42:03;;;;;;;10.35;6.40;;;;;;;4.75;86.62;94981.63;5089677;28;20130;-72
2021/01/07 10:44:32;;;;;;;8.52;5.25;;;;;;;4.69;86.26;94979.78;5089672;28;20139;-72
2021/01/07 10:47:00;;;;;;;17.83;7.63;;;;;;;4.81;86.56;94986.97;5088669;28;20032;-72
2021/01/07 10:49:29;;;;;;;8.77;5.93;;;;;;;4.64;86.08;94966.66;5087917;28;20055;-72
2021/01/07 10:51:55;;;;;;;8.32;5.97;;;;;;;4.76;85.16;94972.88;5089514;28;20040;-72
2021/01/07 10:54:48;;;;;;;13.48;6.60;;;;;;;4.78;85.26;94978.63;5089341;28;20044;-72
2021/01/07 10:57:46;;;;;;;13.88;8.15;;;;;;;4.66;84.86;94954.34;5089230;28;20036;-72
2021/01/07 11:00:19;;;;;;;7.85;4.20;;;;;;;4.86;83.91;94987.22;5088707;28;20070;-72
2021/01/07 11:02:51;;;;;;;17.23;9.55;;;;;;;4.92;84.09;94989.06;5086494;28;20043;-72
2021/01/07 11:05:19;;;;;;;12.45;6.80;;;;;;;4.81;84.39;94981.81;5088370;28;20107;-72
2021/01/07 11:08:15;;;;;;;8.25;4.80;;;;;;;4.89;84.43;94979.09;5087320;28;20036;-72
2021/01/07 11:10:53;;;;;;;21.00;10.68;;;;;;;5.01;84.59;94975.00;5086223;28;20128;-72
2021/01/07 11:13:31;;;;;;;8.38;4.55;;;;;;;4.95;83.73;94970.56;5086135;28;20118;-72
2021/01/07 11:16:00;;;;;;;8.45;5.10;;;;;;;5.02;83.65;94966.25;5088180;28;20036;-72
2021/01/07 11:18:32;;;;;;;6.93;4.32;;;;;;;4.90;84.42;94985.88;5086839;28;20430;-72
2021/01/07 11:21:02;;;;;;;31.83;9.55;;;;;;;4.87;84.63;94976.72;5088595;28;20036;-72
2021/01/07 11:23:28;;;;;;;12.43;5.45;;;;;;;4.96;85.03;94990.25;5086121;28;20119;-72
2021/01/07 11:25:55;;;;;;;15.35;6.15;;;;;;;4.87;85.44;94991.41;5087314;28;20036;-72
2021/01/07 11:28:21;;;;;;;10.43;4.20;;;;;;;4.72;86.01;94979.41;5087388;28;20054;-72
2021/01/07 11:30:48;;;;;;;7.80;4.07;;;;;;;4.73;86.89;94978.41;5086722;28;20461;-72
2021/01/07 11:33:16;;;;;;;7.00;4.15;;;;;;;4.71;87.04;94967.50;5088218;28;20036;-72
2021/01/07 11:35:45;;;;;;;15.25;6.72;;;;;;;4.65;88.24;94963.09;5086944;28;20046;-72
2021/01/07 11:38:25;;;;;;;13.52;8.30;;;;;;;4.57;87.85;94965.81;5088170;28;20115;-72
2021/01/07 11:41:01;;;;;;;15.63;9.48;;;;;;;4.60;88.95;94971.41;5085480;28;20044;-72
2021/01/07 11:43:46;;;;;;;18.95;10.52;;;;;;;4.57;89.23;94965.81;5087090;28;20059;-72